Time;durP1;ratioP1;P1;durP2;ratioP2;P2;SDS_P1;SDS_P2;PMS_P1;PMS_P2;Temp;Humidity;BMP_temperature;BMP_pressure;BME280_temperature;BME280_humidity;BME280_pressure;Samples;Min_cycle;Max_cycle;Signal;HPM_P1;HPM_P2
2023/07/05 04:05:40;;;;;;;;;;;;;;;;;;;;;
2023/07/05 04:08:36;;;;;;;;;;;;;;;21.20;64.51;99743.63;6201080;23;19965;-96
2023/07/05 04:11:07;;;;;;;;;;;;;;;21.27;64.32;99746.53;6197219;23;19913;-94
2023/07/05 04:13:35;;;;;;;;;;;;;;;21.33;64.61;99749.78;6179362;23;19924;-94
2023/07/05 04:16:10;;;;;;;;;;;;;;;21.43;64.85;99740.03;6132023;23;19920;-95
2023/07/05 04:18:38;;;;;;;;;;;;;;;21.52;64.23;99740.53;6152091;23;19952;-96
2023/07/05 04:21:36;;;;;;;;;;;;;;;21.61;63.92;99752.19;6155033;23;19924;-94
2023/07/05 04:24:06;;;;;;;;;;;;;;;21.71;62.84;99745.97;6188556;23;19972;-93
2023/07/05 04:26:49;;;;;;;;;;;;;;;21.87;62.93;99744.97;6189751;23;19923;-93
2023/07/05 04:29:17;;;;;;;;;;;;;;;21.93;61.46;99743.47;6132880;23;19924;-95
2023/07/05 04:31:43;;;;;;;;;;;;;;;21.98;61.09;99746.69;6159413;23;20380;-94
2023/07/05 04:34:47;;;;;;;;;;;;;;;22.09;61.27;99741.28;6176243;23;19924;-96
2023/07/05 04:37:19;;;;;;;;;;;;;;;22.20;60.58;99733.84;6155243;23;20298;-93
2023/07/05 04:39:50;;;;;;;;;;;;;;;22.20;59.40;99739.44;6152736;23;19936;-94
2023/07/05 04:42:17;;;;;;;;;;;;;;;22.21;59.33;99741.03;6159913;23;19975;-93
2023/07/05 04:44:43;;;;;;;;;;;;;;;22.27;59.46;99739.50;6151479;23;19924;-94
2023/07/05 04:47:55;;;;;;;;;;;;;;;22.38;59.97;99736.81;6127750;23;19927;-94
2023/07/05 04:50:22;;;;;;;;;;;;;;;22.44;59.40;99740.88;6142393;23;19999;-95
2023/07/05 04:53:25;;;;;;;;;;;;;;;22.59;60.36;99744.59;6165700;23;19905;-94
2023/07/05 04:55:57;;;;;;;;;;;;;;;22.75;59.96;99747.16;6122635;23;19963;-96
2023/07/05 04:58:23;;;;;;;;;;;;;;;22.89;58.64;99747.25;6148502;23;19931;-92
2023/07/05 05:04:05;;;;;;;;;;;;;;;23.04;57.78;99753.75;6181515;23;19925;-93
2023/07/05 05:07:20;;;;;;;;;;;;;;;23.15;57.86;99751.88;6148103;23;19925;-94
2023/07/05 05:09:48;;;;;;;;;;;;;;;23.19;55.83;99735.16;6121766;23;19921;-94
2023/07/05 05:12:35;;;;;;;;;;;;;;;23.42;56.43;99757.22;6140809;23;19924;-91
2023/07/05 05:15:52;;;;;;;;;;;;;;;23.44;53.89;99750.09;6200138;23;19920;-92
2023/07/05 05:18:22;;;;;;;;;;;;;;;23.50;52.80;99746.91;6177287;23;19913;-91
2023/07/05 05:20:51;;;;;;;;;;;;;;;23.53;52.77;99746.91;6175030;23;19920;-93
2023/07/05 05:23:18;;;;;;;;;;;;;;;23.65;53.62;99749.38;6203967;23;19928;-92
2023/07/05 05:26:01;;;;;;;;;;;;;;;23.74;54.59;99740.69;6157464;23;19924;-93
2023/07/05 05:28:28;;;;;;;;;;;;;;;23.86;54.17;99743.13;6142153;23;19925;-94
2023/07/05 05:33:54;;;;;;;;;;;;;;;24.12;54.77;99738.44;6195483;23;19924;-93
2023/07/05 05:48:11;;;;;;;;;;;;;;;24.30;54.09;99758.03;6108983;23;20236;-92
2023/07/05 05:57:48;;;;;;;;;;;;;;;24.39;50.83;99750.09;6110909;23;19921;-93
2023/07/05 06:00:42;;;;;;;;;;;;;;;24.45;50.82;99754.13;6062722;23;20068;-96
2023/07/05 06:03:34;;;;;;;;;;;;;;;24.47;51.48;99750.91;6093562;23;19969;-94
2023/07/05 06:06:37;;;;;;;;;;;;;;;24.45;50.40;99751.31;6071494;23;19948;-96
2023/07/05 06:17:32;;;;;;;;;;;;;;;24.77;51.10;99754.16;6226852;23;19923;-91
2023/07/05 06:20:10;;;;;;;;;;;;;;;24.77;51.32;99754.16;6174421;23;19947;-93
2023/07/05 06:39:18;;;;;;;;;;;;;;;24.83;50.51;99752.59;6176874;23;19920;-96
2023/07/05 06:45:29;;;;;;;;;;;;;;;25.17;51.85;99740.22;6213405;23;20003;-93
2023/07/05 06:48:46;;;;;;;;;;;;;;;25.23;50.17;99746.97;6087437;23;19921;-96
2023/07/05 06:54:31;;;;;;;;;;;;;;;25.30;49.70;99736.59;6190912;23;19924;-93
2023/07/05 06:57:33;;;;;;;;;;;;;;;25.35;49.56;99748.56;6108828;23;20331;-93
2023/07/05 07:05:52;;;;;;;;;;;;;;;25.85;48.53;99740.84;6194711;23;20279;-91
2023/07/05 07:08:45;;;;;;;;;;;;;;;26.08;46.58;99740.34;6152587;23;19981;-93
2023/07/05 07:11:12;;;;;;;;;;;;;;;26.22;46.09;99737.47;6139684;23;19920;-94
2023/07/05 07:13:44;;;;;;;;;;;;;;;26.37;46.20;99743.78;6147427;23;19927;-93
2023/07/05 07:16:14;;;;;;;;;;;;;;;26.42;46.02;99742.53;6123274;23;20441;-94
2023/07/05 07:18:47;;;;;;;;;;;;;;;26.50;45.56;99732.13;6124952;23;19951;-91
2023/07/05 07:21:44;;;;;;;;;;;;;;;26.51;45.51;99742.13;6121595;23;19921;-94
2023/07/05 07:24:12;;;;;;;;;;;;;;;26.73;45.30;99735.16;6165790;23;19999;-93
2023/07/05 07:27:26;;;;;;;;;;;;;;;26.86;44.31;99753.09;6196249;23;19927;-87
2023/07/05 07:30:10;;;;;;;;;;;;;;;26.73;42.22;99746.38;6167384;23;20039;-90
2023/07/05 07:32:37;;;;;;;;;;;;;;;26.80;43.50;99739.91;6141992;23;19920;-87
2023/07/05 07:35:03;;;;;;;;;;;;;;;26.87;42.61;99740.66;6178345;23;20266;-91
2023/07/05 07:37:38;;;;;;;;;;;;;;;26.93;43.02;99735.41;6137442;23;19920;-93
2023/07/05 07:40:06;;;;;;;;;;;;;;;27.06;43.63;99733.69;6134858;23;20330;-90
2023/07/05 07:42:41;;;;;;;;;;;;;;;27.13;42.79;99741.25;6159005;23;19920;-89
2023/07/05 07:45:10;;;;;;;;;;;;;;;27.25;42.76;99731.50;6188245;23;19919;-94
2023/07/05 07:47:51;;;;;;;;;;;;;;;27.34;42.72;99731.81;6164627;23;19920;-88
2023/07/05 07:50:19;;;;;;;;;;;;;;;27.29;40.53;99735.91;6193160;23;19969;-94
2023/07/05 07:52:56;;;;;;;;;;;;;;;27.26;38.39;99735.94;6199567;23;19931;-92
2023/07/05 07:55:28;;;;;;;;;;;;;;;27.26;37.43;99742.34;6172713;23;19920;-88
2023/07/05 07:57:57;;;;;;;;;;;;;;;27.26;40.18;99738.72;6148969;23;19920;-87
2023/07/05 08:00:24;;;;;;;;;;;;;;;27.28;39.68;99733.47;6145267;23;19959;-86
2023/07/05 08:03:02;;;;;;;;;;;;;;;27.17;38.66;99731.59;6196488;23;20508;-87
2023/07/05 08:05:30;;;;;;;;;;;;;;;27.14;39.05;99723.19;6117610;23;20309;-86
2023/07/05 08:07:57;;;;;;;;;;;;;;;27.12;39.75;99728.41;6169868;23;19908;-88
2023/07/05 08:10:27;;;;;;;;;;;;;;;27.07;39.64;99728.84;6145017;23;19901;-88
2023/07/05 08:12:57;;;;;;;;;;;;;;;27.14;39.97;99724.00;6167607;23;19983;-88
2023/07/05 08:15:48;;;;;;;;;;;;;;;27.13;39.43;99730.03;6166731;23;19920;-87
2023/07/05 08:18:15;;;;;;;;;;;;;;;27.21;39.82;99728.75;6163376;23;19921;-87
2023/07/05 08:20:42;;;;;;;;;;;;;;;27.35;39.76;99733.41;6162950;23;19967;-87
2023/07/05 08:23:10;;;;;;;;;;;;;;;27.36;40.69;99730.19;6113155;23;19984;-86
2023/07/05 08:25:55;;;;;;;;;;;;;;;27.46;40.83;99742.53;6164196;23;19924;-87
2023/07/05 08:28:28;;;;;;;;;;;;;;;27.44;40.39;99736.53;6167805;23;19924;-95
2023/07/05 08:30:56;;;;;;;;;;;;;;;27.44;39.05;99746.97;6140043;23;19920;-89
2023/07/05 08:33:27;;;;;;;;;;;;;;;27.37;39.13;99742.22;6164356;23;19920;-86
2023/07/05 08:36:08;;;;;;;;;;;;;;;27.27;38.44;99748.75;6164522;23;19932;-91
2023/07/05 08:38:54;;;;;;;;;;;;;;;27.28;38.83;99741.91;6138515;23;20005;-86
2023/07/05 08:41:43;;;;;;;;;;;;;;;27.31;40.40;99747.47;6162589;23;19924;-87
2023/07/05 08:44:23;;;;;;;;;;;;;;;27.29;40.79;99738.69;6142838;23;20347;-88
2023/07/05 08:46:54;;;;;;;;;;;;;;;27.22;40.13;99743.56;6164243;23;19939;-90
2023/07/05 08:49:21;;;;;;;;;;;;;;;27.23;41.41;99748.78;6168012;23;19974;-85
2023/07/05 08:51:56;;;;;;;;;;;;;;;27.20;41.44;99746.00;6162243;23;20351;-87
2023/07/05 08:54:32;;;;;;;;;;;;;;;27.12;41.28;99745.25;6164560;23;19921;-83
2023/07/05 08:57:06;;;;;;;;;;;;;;;27.10;40.51;99753.28;6171057;23;19917;-84
2023/07/05 08:59:59;;;;;;;;;;;;;;;27.05;41.87;99748.09;6168946;23;19948;-89
2023/07/05 09:02:50;;;;;;;;;;;;;;;27.09;41.90;99746.88;6152112;23;19920;-86
2023/07/05 09:05:35;;;;;;;;;;;;;;;27.28;42.49;99748.31;6177119;23;19920;-86
2023/07/05 09:08:13;;;;;;;;;;;;;;;27.35;40.71;99744.63;6137007;23;19920;-85
2023/07/05 09:11:03;;;;;;;;;;;;;;;27.35;42.35;99742.66;6157531;23;19908;-85
2023/07/05 09:13:51;;;;;;;;;;;;;;;27.40;41.30;99758.22;6159986;23;19979;-86
2023/07/05 09:16:40;;;;;;;;;;;;;;;27.41;42.40;99749.38;6157528;23;20262;-87
2023/07/05 09:19:30;;;;;;;;;;;;;;;27.62;42.86;99756.00;6144716;23;19959;-86
2023/07/05 09:22:04;;;;;;;;;;;;;;;27.94;40.98;99752.03;6163082;23;19920;-87
2023/07/05 09:24:34;;;;;;;;;;;;;;;28.03;41.53;99755.13;6161954;23;20660;-87
2023/07/05 09:27:23;;;;;;;;;;;;;;;27.96;41.95;99756.03;6159230;23;19931;-88
2023/07/05 09:30:01;;;;;;;;;;;;;;;27.79;41.24;99755.03;6158365;23;19920;-87
2023/07/05 09:32:59;;;;;;;;;;;;;;;27.76;41.70;99747.44;6129191;23;20735;-89
2023/07/05 09:35:30;;;;;;;;;;;;;;;27.83;43.07;99732.50;6111691;23;19928;-90
2023/07/05 09:38:52;;;;;;;;;;;;;;;27.97;41.75;99740.75;6090443;23;19963;-88
2023/07/05 09:41:40;;;;;;;;;;;;;;;27.91;40.74;99750.84;6106888;23;19928;-88
2023/07/05 09:44:09;;;;;;;;;;;;;;;28.05;40.69;99742.25;6129804;23;20359;-91
2023/07/05 09:47:01;;;;;;;;;;;;;;;28.18;41.08;99739.69;6103510;23;19951;-84
2023/07/05 09:49:31;;;;;;;;;;;;;;;28.06;41.46;99740.25;6125487;23;19927;-92
2023/07/05 09:51:59;;;;;;;;;;;;;;;27.90;40.83;99745.66;6125321;23;20770;-88
2023/07/05 09:54:30;;;;;;;;;;;;;;;27.87;41.88;99747.28;6100764;23;19923;-89
2023/07/05 09:56:58;;;;;;;;;;;;;;;27.77;41.09;99743.41;6129270;23;19921;-93
2023/07/05 09:59:31;;;;;;;;;;;;;;;27.84;41.28;99740.50;6057772;23;19916;-87
2023/07/05 10:02:16;;;;;;;;;;;;;;;27.87;41.55;99741.69;6131310;23;19901;-87
2023/07/05 10:04:45;;;;;;;;;;;;;;;27.69;42.25;99739.06;6130368;23;19927;-87
2023/07/05 10:07:14;;;;;;;;;;;;;;;27.64;43.05;99740.31;6130025;23;19945;-85
2023/07/05 10:09:53;;;;;;;;;;;;;;;27.42;41.79;99744.59;6139816;23;19994;-86
2023/07/05 10:12:21;;;;;;;;;;;;;;;27.22;42.78;99749.19;6162581;23;19921;-85
2023/07/05 10:14:55;;;;;;;;;;;;;;;27.10;42.93;99742.06;6159892;23;19923;-92
2023/07/05 10:17:23;;;;;;;;;;;;;;;26.96;43.55;99743.00;6166286;23;19940;-85
2023/07/05 10:19:53;;;;;;;;;;;;;;;26.93;44.38;99739.00;6159947;23;19979;-87
2023/07/05 10:22:34;;;;;;;;;;;;;;;26.86;44.13;99736.25;6161941;23;20362;-94
2023/07/05 10:25:13;;;;;;;;;;;;;;;26.89;44.79;99732.63;6160702;23;19924;-84
2023/07/05 10:27:43;;;;;;;;;;;;;;;26.84;44.99;99735.84;6138797;23;19928;-86
2023/07/05 10:30:18;;;;;;;;;;;;;;;26.71;44.87;99740.38;6159876;23;19974;-84
2023/07/05 10:33:06;;;;;;;;;;;;;;;26.69;45.14;99745.63;6161926;23;19926;-83
2023/07/05 10:35:33;;;;;;;;;;;;;;;26.63;45.51;99741.66;6118246;23;19921;-86
2023/07/05 10:38:20;;;;;;;;;;;;;;;26.59;45.52;99743.66;6146314;23;19936;-88
2023/07/05 10:40:54;;;;;;;;;;;;;;;26.62;45.70;99745.63;6143944;23;19921;-85
2023/07/05 10:43:57;;;;;;;;;;;;;;;26.73;46.07;99754.78;6080976;23;19933;-86
2023/07/05 10:46:25;;;;;;;;;;;;;;;26.81;45.45;99750.72;6077417;23;19940;-87
2023/07/05 10:49:03;;;;;;;;;;;;;;;26.88;45.88;99761.06;6028075;23;20005;-91
2023/07/05 10:51:39;;;;;;;;;;;;;;;26.81;45.26;99761.94;6070921;23;19917;-86
2023/07/05 10:54:36;;;;;;;;;;;;;;;26.69;45.54;99768.84;6070948;23;20358;-87
2023/07/05 10:57:14;;;;;;;;;;;;;;;26.66;46.23;99777.28;6072646;23;19926;-90
2023/07/05 10:59:43;;;;;;;;;;;;;;;26.70;46.25;99780.84;6076406;23;20275;-90
2023/07/05 11:02:49;;;;;;;;;;;;;;;26.58;46.17;99778.53;6050579;23;19932;-85
2023/07/05 11:05:40;;;;;;;;;;;;;;;26.67;47.03;99778.88;6047644;23;19946;-85
2023/07/05 11:08:32;;;;;;;;;;;;;;;26.54;47.31;99780.56;6068659;23;19926;-85
2023/07/05 11:11:01;;;;;;;;;;;;;;;26.61;47.25;99786.91;6019096;23;19922;-90
2023/07/05 11:13:29;;;;;;;;;;;;;;;26.52;47.00;99783.75;6068368;23;20006;-87
2023/07/05 11:15:56;;;;;;;;;;;;;;;26.41;46.81;99781.00;6017956;23;20021;-92
2023/07/05 11:18:22;;;;;;;;;;;;;;;26.27;46.70;99772.69;6062622;23;19929;-85
2023/07/05 11:20:56;;;;;;;;;;;;;;;26.34;47.32;99783.06;6107822;23;19927;-87
2023/07/05 11:23:40;;;;;;;;;;;;;;;26.28;47.47;99779.88;6191259;23;19966;-87
2023/07/05 11:26:07;;;;;;;;;;;;;;;26.18;47.74;99789.91;6188090;23;19923;-84
2023/07/05 11:28:39;;;;;;;;;;;;;;;26.12;47.82;99791.53;6136278;23;19920;-86
2023/07/05 11:31:06;;;;;;;;;;;;;;;26.15;48.32;99792.75;6185862;23;19916;-85
2023/07/05 11:33:33;;;;;;;;;;;;;;;26.08;48.06;99776.75;6188609;23;19920;-89
2023/07/05 11:36:05;;;;;;;;;;;;;;;26.13;48.95;99789.56;6189392;23;19915;-94
2023/07/05 11:38:38;;;;;;;;;;;;;;;26.09;47.84;99786.75;6186762;23;20418;-86
2023/07/05 11:41:04;;;;;;;;;;;;;;;26.12;47.79;99788.75;6159081;23;19939;-90
2023/07/05 11:43:38;;;;;;;;;;;;;;;26.09;47.50;99777.56;6108526;23;19979;-85
2023/07/05 11:46:24;;;;;;;;;;;;;;;26.11;47.95;99781.56;6108336;23;19920;-86
2023/07/05 11:48:49;;;;;;;;;;;;;;;26.18;47.25;99784.31;6157009;23;19920;-86
2023/07/05 11:51:28;;;;;;;;;;;;;;;26.11;47.48;99780.75;6186235;23;19920;-83
2023/07/05 11:53:56;;;;;;;;;;;;;;;26.18;47.64;99789.91;6188826;23;19927;-86
2023/07/05 11:56:24;;;;;;;;;;;;;;;26.30;46.92;99785.88;6161278;23;20262;-92
2023/07/05 11:58:56;;;;;;;;;;;;;;;26.32;45.41;99786.25;6190003;23;19926;-90
2023/07/05 12:01:26;;;;;;;;;;;;;;;26.52;45.44;99794.19;6192614;23;20266;-94
2023/07/05 12:03:55;;;;;;;;;;;;;;;26.91;44.30;99782.69;6141313;23;20397;-88
2023/07/05 12:06:34;;;;;;;;;;;;;;;27.19;43.37;99781.72;6162119;23;19924;-89
2023/07/05 12:09:02;;;;;;;;;;;;;;;27.32;44.14;99782.78;6134722;23;19924;-94
2023/07/05 12:11:35;;;;;;;;;;;;;;;27.27;42.82;99777.59;6113387;23;20284;-92
2023/07/05 12:14:19;;;;;;;;;;;;;;;27.26;44.34;99773.22;6119583;23;20351;-88
2023/07/05 12:17:24;;;;;;;;;;;;;;;27.14;44.52;99776.53;6112928;23;19969;-90
2023/07/05 12:19:52;;;;;;;;;;;;;;;26.86;43.81;99775.53;6102219;23;20577;-89
2023/07/05 12:22:20;;;;;;;;;;;;;;;26.94;43.30;99767.84;6135665;23;20003;-93
2023/07/05 12:25:09;;;;;;;;;;;;;;;27.08;43.16;99766.91;6112054;23;19920;-91
2023/07/05 12:27:48;;;;;;;;;;;;;;;27.11;41.23;99771.72;6053370;23;19968;-91
2023/07/05 12:30:29;;;;;;;;;;;;;;;26.97;41.17;99767.03;6137339;23;20003;-93
2023/07/05 12:33:02;;;;;;;;;;;;;;;27.00;41.94;99771.00;6120213;23;20006;-90
2023/07/05 12:35:55;;;;;;;;;;;;;;;26.99;43.46;99769.41;6168886;23;19920;-93
2023/07/05 12:42:08;;;;;;;;;;;;;;;26.89;42.74;99771.09;6190874;23;20008;-94
2023/07/05 12:45:10;;;;;;;;;;;;;;;26.76;42.55;99772.81;6195549;23;20428;-94
2023/07/05 12:47:49;;;;;;;;;;;;;;;26.70;43.43;99766.84;6164041;23;19916;-93
2023/07/05 12:50:41;;;;;;;;;;;;;;;26.75;42.41;99765.59;6164070;23;19927;-89
2023/07/05 12:53:28;;;;;;;;;;;;;;;27.20;42.23;99765.66;6186637;23;20003;-88
2023/07/05 12:56:13;;;;;;;;;;;;;;;27.74;42.43;99754.66;6162277;23;20282;-87
2023/07/05 12:58:44;;;;;;;;;;;;;;;28.01;41.21;99754.75;6160414;23;19920;-91
2023/07/05 13:01:13;;;;;;;;;;;;;;;28.25;40.29;99756.44;6166625;23;19920;-84
2023/07/05 13:03:44;;;;;;;;;;;;;;;28.20;39.51;99762.53;6137111;23;19920;-90
2023/07/05 13:06:13;;;;;;;;;;;;;;;28.23;40.63;99756.06;6140931;23;19969;-88
2023/07/05 13:08:46;;;;;;;;;;;;;;;28.24;39.65;99754.03;6116213;23;20007;-93
2023/07/05 13:11:20;;;;;;;;;;;;;;;28.38;40.65;99751.06;6188463;23;19924;-91
2023/07/05 13:13:55;;;;;;;;;;;;;;;28.51;39.65;99749.28;6193565;23;19920;-87
2023/07/05 13:16:23;;;;;;;;;;;;;;;28.59;39.36;99747.16;6161768;23;19920;-88
2023/07/05 13:19:01;;;;;;;;;;;;;;;28.47;38.39;99747.72;6136063;23;20491;-87
2023/07/05 13:21:43;;;;;;;;;;;;;;;28.45;38.62;99744.56;6138254;23;19995;-90
2023/07/05 13:24:16;;;;;;;;;;;;;;;28.33;38.34;99743.06;6157710;23;19921;-88
2023/07/05 13:26:42;;;;;;;;;;;;;;;28.29;39.00;99734.69;6185968;23;19920;-90
2023/07/05 13:29:25;;;;;;;;;;;;;;;28.38;38.90;99733.34;6161438;23;20247;-89
2023/07/05 13:31:52;;;;;;;;;;;;;;;28.43;39.78;99730.13;6184694;23;19920;-88
2023/07/05 13:34:21;;;;;;;;;;;;;;;28.55;40.27;99724.69;6159536;23;20024;-87
2023/07/05 13:36:48;;;;;;;;;;;;;;;28.67;39.80;99730.94;6184483;23;19924;-92
2023/07/05 13:39:15;;;;;;;;;;;;;;;28.70;40.02;99722.44;6184898;23;19927;-94
2023/07/05 13:41:43;;;;;;;;;;;;;;;28.75;38.56;99727.59;6112343;23;19920;-87
2023/07/05 13:44:17;;;;;;;;;;;;;;;28.55;39.16;99729.53;6184250;23;19924;-86
2023/07/05 13:46:46;;;;;;;;;;;;;;;28.53;39.77;99729.16;6157683;23;20301;-89
2023/07/05 13:49:12;;;;;;;;;;;;;;;28.51;38.96;99732.41;6184068;23;19927;-86
2023/07/05 13:51:43;;;;;;;;;;;;;;;28.34;40.28;99722.16;6190274;23;19974;-91
2023/07/05 13:54:10;;;;;;;;;;;;;;;28.43;40.43;99722.47;6163070;23;19920;-87
2023/07/05 13:56:36;;;;;;;;;;;;;;;28.59;40.33;99721.84;6164450;23;19920;-85
2023/07/05 13:59:03;;;;;;;;;;;;;;;28.69;39.18;99722.88;6159419;23;19925;-86
2023/07/05 14:01:32;;;;;;;;;;;;;;;28.65;39.18;99717.31;6159961;23;19927;-89
2023/07/05 14:03:59;;;;;;;;;;;;;;;28.63;39.17;99714.13;6159085;23;20389;-90
2023/07/05 14:06:26;;;;;;;;;;;;;;;28.67;39.20;99720.47;6157978;23;19925;-85
2023/07/05 14:08:52;;;;;;;;;;;;;;;28.80;38.96;99704.59;6183123;23;19921;-86
2023/07/05 14:11:18;;;;;;;;;;;;;;;28.84;39.16;99698.09;6157313;23;19975;-86
2023/07/05 14:13:44;;;;;;;;;;;;;;;28.74;38.84;99697.88;6183839;23;19928;-87
2023/07/05 14:16:14;;;;;;;;;;;;;;;28.80;39.52;99693.31;6183169;23;19920;-86
2023/07/05 14:18:41;;;;;;;;;;;;;;;28.91;40.80;99706.44;6158518;23;20317;-88
2023/07/05 14:21:25;;;;;;;;;;;;;;;28.52;40.23;99705.84;6160142;23;19928;-88
2023/07/05 14:23:51;;;;;;;;;;;;;;;28.21;39.75;99707.91;6155796;23;19920;-86
2023/07/05 14:26:19;;;;;;;;;;;;;;;28.18;40.01;99694.72;6185106;23;19927;-93
2023/07/05 14:28:45;;;;;;;;;;;;;;;28.08;40.15;99695.66;6134580;23;20258;-87
2023/07/05 14:31:12;;;;;;;;;;;;;;;27.81;40.25;99704.81;6154238;23;19920;-89
2023/07/05 14:33:39;;;;;;;;;;;;;;;27.80;41.45;99703.22;6157000;23;19920;-84
2023/07/05 14:36:08;;;;;;;;;;;;;;;27.62;40.86;99705.44;6133579;23;19948;-86
2023/07/05 14:38:34;;;;;;;;;;;;;;;27.38;41.53;99701.69;6185941;23;20255;-87
2023/07/05 14:41:01;;;;;;;;;;;;;;;27.51;40.06;99710.38;6136780;23;20010;-90
2023/07/05 14:43:36;;;;;;;;;;;;;;;27.75;40.58;99709.31;6165695;23;19978;-89
2023/07/05 14:46:02;;;;;;;;;;;;;;;27.93;40.41;99711.13;6188504;23;19951;-87
2023/07/05 14:48:28;;;;;;;;;;;;;;;28.02;41.06;99700.16;6186989;23;19920;-92
2023/07/05 14:50:53;;;;;;;;;;;;;;;27.73;40.60;99703.28;6135220;23;19920;-87
2023/07/05 14:53:24;;;;;;;;;;;;;;;27.70;40.12;99715.38;6185470;23;19978;-87
2023/07/05 14:55:50;;;;;;;;;;;;;;;27.26;40.98;99703.03;6137573;23;19920;-87
2023/07/05 14:58:16;;;;;;;;;;;;;;;27.50;41.45;99711.59;6136955;23;19923;-84
2023/07/05 15:00:45;;;;;;;;;;;;;;;27.51;41.54;99710.38;6188320;23;20030;-86
2023/07/05 15:03:13;;;;;;;;;;;;;;;27.58;40.96;99704.66;6184872;23;19920;-85
2023/07/05 15:05:40;;;;;;;;;;;;;;;27.80;40.58;99702.44;6195912;23;19920;-89
2023/07/05 15:08:10;;;;;;;;;;;;;;;27.97;40.10;99692.19;6148795;23;19958;-91
2023/07/05 15:10:36;;;;;;;;;;;;;;;27.98;39.98;99697.41;6191225;23;19921;-88
2023/07/05 15:13:01;;;;;;;;;;;;;;;28.01;40.27;99698.53;6191336;23;19947;-87
2023/07/05 15:15:31;;;;;;;;;;;;;;;27.72;40.56;99703.72;6189596;23;19920;-86
2023/07/05 15:17:57;;;;;;;;;;;;;;;27.23;41.09;99703.06;6191241;23;19920;-89
2023/07/05 15:20:51;;;;;;;;;;;;;;;27.00;41.76;99698.06;6138461;23;19926;-88
2023/07/05 15:23:17;;;;;;;;;;;;;;;27.08;42.01;99696.75;6192185;23;19920;-88
2023/07/05 15:25:44;;;;;;;;;;;;;;;27.28;41.85;99689.38;6191857;23;19920;-91
2023/07/05 15:28:10;;;;;;;;;;;;;;;27.42;41.05;99694.03;6163355;23;19943;-88
2023/07/05 15:30:37;;;;;;;;;;;;;;;27.55;40.77;99697.91;6187924;23;19920;-91
2023/07/05 15:33:04;;;;;;;;;;;;;;;27.66;40.85;99706.19;6165008;23;19921;-92
2023/07/05 15:35:30;;;;;;;;;;;;;;;27.63;40.87;99693.78;6199723;23;19920;-91
2023/07/05 15:37:57;;;;;;;;;;;;;;;27.71;41.44;99696.50;6168947;23;19939;-95
2023/07/05 15:40:25;;;;;;;;;;;;;;;27.81;41.46;99704.03;6173542;23;19921;-90
2023/07/05 15:42:52;;;;;;;;;;;;;;;27.85;41.18;99699.19;6194927;23;19919;-85
2023/07/05 15:45:44;;;;;;;;;;;;;;;27.80;41.08;99696.81;6188435;23;19959;-87
2023/07/05 15:48:12;;;;;;;;;;;;;;;27.68;41.20;99700.94;6113741;23;19920;-86
2023/07/05 15:50:39;;;;;;;;;;;;;;;27.58;41.20;99702.69;6191058;23;19923;-88
2023/07/05 15:53:09;;;;;;;;;;;;;;;27.56;42.02;99713.53;6192173;23;19920;-89
2023/07/05 15:55:34;;;;;;;;;;;;;;;27.36;41.62;99702.13;6198608;23;19947;-87
2023/07/05 15:58:05;;;;;;;;;;;;;;;27.32;41.91;99703.38;6151967;23;19978;-92
2023/07/05 16:00:37;;;;;;;;;;;;;;;27.30;42.04;99705.81;6194129;23;19999;-89
2023/07/05 16:03:05;;;;;;;;;;;;;;;27.22;42.08;99707.06;6163424;23;19920;-88
2023/07/05 16:05:38;;;;;;;;;;;;;;;27.15;42.16;99708.78;6187084;23;19923;-87
2023/07/05 16:08:07;;;;;;;;;;;;;;;27.14;42.53;99707.16;6185858;23;19924;-89
2023/07/05 16:10:34;;;;;;;;;;;;;;;27.18;42.63;99712.72;6160188;23;19916;-90
2023/07/05 16:13:01;;;;;;;;;;;;;;;27.09;42.69;99704.78;6110371;23;19927;-87
2023/07/05 16:15:34;;;;;;;;;;;;;;;26.96;43.13;99714.94;6163108;23;19916;-91
2023/07/05 16:18:17;;;;;;;;;;;;;;;26.81;43.32;99708.63;6137077;23;19921;-85
2023/07/05 16:20:44;;;;;;;;;;;;;;;26.66;43.98;99713.56;6192122;23;19924;-89
2023/07/05 16:23:38;;;;;;;;;;;;;;;26.58;44.28;99714.81;6146988;23;19920;-88
2023/07/05 16:26:06;;;;;;;;;;;;;;;26.39;44.49;99720.94;6125390;23;19928;-88
2023/07/05 16:28:33;;;;;;;;;;;;;;;26.36;44.85;99725.38;6144295;23;19920;-89
2023/07/05 16:31:02;;;;;;;;;;;;;;;26.27;44.98;99725.03;6167598;23;19920;-88
2023/07/05 16:33:31;;;;;;;;;;;;;;;26.13;45.33;99723.09;6186674;23;19926;-87
2023/07/05 16:36:00;;;;;;;;;;;;;;;25.97;45.72;99725.59;6183497;23;19920;-89
2023/07/05 16:38:26;;;;;;;;;;;;;;;25.92;45.68;99720.41;6133408;23;19920;-88
2023/07/05 16:40:57;;;;;;;;;;;;;;;25.80;45.42;99729.25;6160320;23;20026;-88
2023/07/05 16:43:24;;;;;;;;;;;;;;;25.70;45.86;99728.09;6158566;23;19930;-88
2023/07/05 16:45:50;;;;;;;;;;;;;;;25.68;45.98;99730.47;6107432;23;20366;-89
2023/07/05 16:48:18;;;;;;;;;;;;;;;25.64;46.55;99729.69;6130389;23;19920;-88
2023/07/05 16:50:45;;;;;;;;;;;;;;;25.53;46.83;99730.53;6156361;23;20354;-88
2023/07/05 16:53:12;;;;;;;;;;;;;;;25.51;47.27;99727.31;6157389;23;19920;-88
2023/07/05 16:55:39;;;;;;;;;;;;;;;25.44;47.37;99730.16;6126637;23;19921;-87
2023/07/05 16:58:06;;;;;;;;;;;;;;;25.36;47.63;99733.34;6155114;23;20329;-88
2023/07/05 17:00:32;;;;;;;;;;;;;;;25.28;47.58;99732.59;6150197;23;19935;-89
2023/07/05 17:03:00;;;;;;;;;;;;;;;25.28;47.40;99743.78;6198368;23;19920;-91
2023/07/05 17:05:35;;;;;;;;;;;;;;;25.19;47.29;99743.38;6189398;23;19924;-88
2023/07/05 17:08:03;;;;;;;;;;;;;;;25.14;47.92;99746.59;6186520;23;19920;-89
2023/07/05 17:10:29;;;;;;;;;;;;;;;25.05;47.74;99738.56;6157578;23;19990;-89
2023/07/05 17:12:57;;;;;;;;;;;;;;;25.06;48.29;99751.34;6184776;23;19921;-89
2023/07/05 17:15:23;;;;;;;;;;;;;;;24.98;48.87;99753.38;6161602;23;19920;-88
2023/07/05 17:20:34;;;;;;;;;;;;;;;24.88;49.33;99742.19;6074876;23;19936;-88
2023/07/05 17:23:05;;;;;;;;;;;;;;;24.80;48.81;99755.34;6124502;23;19921;-90
2023/07/05 17:25:41;;;;;;;;;;;;;;;24.75;50.05;99752.97;6125603;23;19920;-89
2023/07/05 17:28:08;;;;;;;;;;;;;;;24.74;49.78;99756.97;6108154;23;19952;-91
2023/07/05 17:30:41;;;;;;;;;;;;;;;24.63;50.37;99756.13;6106131;23;19937;-92
2023/07/05 17:33:07;;;;;;;;;;;;;;;24.59;50.82;99754.13;6065533;23;19922;-93
2023/07/05 17:35:41;;;;;;;;;;;;;;;24.45;51.17;99756.91;5972720;23;19921;-87
2023/07/05 17:38:08;;;;;;;;;;;;;;;24.34;51.45;99748.50;6033231;23;20109;-90
2023/07/05 17:40:34;;;;;;;;;;;;;;;24.29;51.64;99751.66;6062085;23;20013;-88
2023/07/05 17:43:00;;;;;;;;;;;;;;;24.19;51.65;99755.22;6154058;23;19924;-88
2023/07/05 17:45:54;;;;;;;;;;;;;;;24.19;52.37;99760.00;6179098;23;19920;-90
2023/07/05 17:48:23;;;;;;;;;;;;;;;24.11;51.94;99759.19;6133146;23;19924;-89
2023/07/05 17:50:51;;;;;;;;;;;;;;;23.99;52.55;99763.13;6135184;23;19997;-87
2023/07/05 17:53:44;;;;;;;;;;;;;;;23.98;52.85;99764.34;6181247;23;20420;-88
2023/07/05 17:56:13;;;;;;;;;;;;;;;23.90;52.78;99763.47;6159639;23;19943;-89
2023/07/05 17:58:48;;;;;;;;;;;;;;;23.85;52.88;99765.88;6150875;23;19995;-87
2023/07/05 18:01:18;;;;;;;;;;;;;;;23.78;53.19;99769.44;6180395;23;19989;-88
2023/07/05 18:03:48;;;;;;;;;;;;;;;23.73;53.71;99775.38;6184164;23;19928;-88
2023/07/05 18:06:15;;;;;;;;;;;;;;;23.67;53.42;99777.72;6155694;23;19920;-88
2023/07/05 18:11:40;;;;;;;;;;;;;;;23.63;53.19;99788.03;6188740;23;19921;-87
2023/07/05 18:14:32;;;;;;;;;;;;;;;23.63;53.44;99785.25;6181653;23;19936;-88
2023/07/05 18:16:58;;;;;;;;;;;;;;;23.57;53.68;99786.00;6167706;23;19920;-93
2023/07/05 18:19:31;;;;;;;;;;;;;;;23.53;54.20;99791.56;6162340;23;19947;-92
2023/07/05 18:21:58;;;;;;;;;;;;;;;23.49;53.89;99796.34;6127748;23;19920;-88
2023/07/05 18:27:49;;;;;;;;;;;;;;;23.46;54.50;99805.50;6207888;23;19924;-87
2023/07/05 18:30:41;;;;;;;;;;;;;;;23.43;54.88;99803.47;6197528;23;19971;-92
2023/07/05 18:33:13;;;;;;;;;;;;;;;23.37;54.66;99799.44;6147566;23;19927;-89
2023/07/05 18:41:31;;;;;;;;;;;;;;;23.31;54.45;99809.34;6150801;23;19920;-92
2023/07/05 18:44:46;;;;;;;;;;;;;;;23.27;55.11;99805.75;6026775;23;19994;-90
2023/07/05 18:47:40;;;;;;;;;;;;;;;23.28;55.51;99812.91;6051466;23;19921;-88
2023/07/05 18:50:08;;;;;;;;;;;;;;;23.23;55.89;99816.88;6022215;23;19991;-90
2023/07/05 18:52:33;;;;;;;;;;;;;;;23.15;56.46;99810.44;6039379;23;19925;-90